createdAt,value
2019-06-15T00:00:51.057Z,96859.00
2019-06-15T00:03:22.854Z,96847.00
2019-06-15T00:05:53.563Z,96855.00
2019-06-15T00:08:24.414Z,96856.00
2019-06-15T00:10:55.253Z,96853.00
2019-06-15T00:13:27.187Z,96841.00
2019-06-15T00:15:59.344Z,96838.00
2019-06-15T00:18:30.681Z,96842.00
2019-06-15T00:21:01.871Z,96831.00
2019-06-15T00:23:32.672Z,96831.00
2019-06-15T00:26:03.473Z,96832.00
2019-06-15T00:28:34.224Z,96831.00
2019-06-15T00:31:04.993Z,96841.00
2019-06-15T00:33:35.769Z,96820.00
2019-06-15T00:36:06.965Z,96817.00
2019-06-15T00:38:37.726Z,96812.00
2019-06-15T00:41:08.523Z,96814.00
2019-06-15T00:43:40.587Z,96826.00
2019-06-15T00:46:11.423Z,96820.00
2019-06-15T00:48:42.216Z,96824.00
2019-06-15T00:51:12.975Z,96834.00
2019-06-15T00:53:43.762Z,96820.00
2019-06-15T00:56:14.505Z,96800.00
2019-06-15T00:58:45.807Z,96802.00
2019-06-15T01:01:16.592Z,96789.00
2019-06-15T01:03:47.588Z,96791.00
2019-06-15T01:06:18.360Z,96780.00
2019-06-15T01:08:49.409Z,96797.00
2019-06-15T01:11:20.789Z,96788.00
2019-06-15T01:13:51.928Z,96779.00
2019-06-15T01:16:23.480Z,96780.00
2019-06-15T01:18:54.226Z,96777.00
2019-06-15T01:21:25.265Z,96772.00
2019-06-15T01:23:56.017Z,96773.00
2019-06-15T01:26:27.030Z,96761.00
2019-06-15T01:28:58.073Z,96767.00
2019-06-15T01:31:28.840Z,96759.00
2019-06-15T01:33:59.633Z,96761.00
2019-06-15T01:36:30.669Z,96759.00
2019-06-15T01:39:01.708Z,96758.00
2019-06-15T01:41:34.096Z,96753.00
2019-06-15T01:44:05.089Z,96756.00
2019-06-15T01:46:35.863Z,96755.00
2019-06-15T01:49:07.011Z,96749.00
2019-06-15T01:51:37.853Z,96750.00
2019-06-15T01:54:09.265Z,96695.00
2019-06-15T01:56:40.016Z,96739.00
2019-06-15T01:59:10.916Z,96740.00
2019-06-15T02:01:42.753Z,96741.00
2019-06-15T02:04:13.786Z,96730.00
2019-06-15T02:06:44.828Z,96727.00
2019-06-15T02:09:15.645Z,96715.00
2019-06-15T02:11:46.473Z,96725.00
2019-06-15T02:14:17.484Z,96721.00
2019-06-15T02:16:48.518Z,96717.00
2019-06-15T02:19:19.308Z,96713.00
2019-06-15T02:21:50.151Z,96717.00
2019-06-15T02:24:21.238Z,96721.00
2019-06-15T02:26:52.295Z,96719.00
2019-06-15T02:29:23.159Z,96704.00
2019-06-15T02:31:53.924Z,96715.00
2019-06-15T02:34:25.026Z,96720.00
2019-06-15T02:36:56.878Z,96717.00
2019-06-15T02:39:28.955Z,96710.00
2019-06-15T02:41:59.789Z,96714.00
2019-06-15T02:44:30.537Z,96710.00
2019-06-15T02:47:01.381Z,96719.00
2019-06-15T02:49:32.143Z,96724.00
2019-06-15T02:52:03.239Z,96717.00
2019-06-15T02:54:34.084Z,96718.00
2019-06-15T02:57:04.984Z,96707.00
2019-06-15T02:59:35.841Z,96709.00
2019-06-15T03:02:07.583Z,96700.00
2019-06-15T03:04:38.641Z,96702.00
2019-06-15T03:07:09.738Z,96694.00
2019-06-15T03:09:40.485Z,96697.00
2019-06-15T03:12:11.245Z,96676.00
2019-06-15T03:14:42.594Z,96699.00
2019-06-15T03:17:13.958Z,96706.00
2019-06-15T03:19:44.713Z,96715.00
2019-06-15T03:22:15.468Z,96720.00
2019-06-15T03:24:46.212Z,96723.00
2019-06-15T03:27:17.048Z,96722.00
2019-06-15T03:29:48.158Z,96724.00
2019-06-15T03:32:19.380Z,96711.00
2019-06-15T03:34:50.150Z,96708.00
2019-06-15T03:37:20.967Z,96706.00
2019-06-15T03:39:52.006Z,96707.00
2019-06-15T03:42:23.128Z,96702.00
2019-06-15T03:44:53.881Z,96713.00
2019-06-15T03:47:24.646Z,96723.00
2019-06-15T03:49:55.714Z,96726.00
2019-06-15T03:52:26.781Z,96714.00
2019-06-15T03:54:57.576Z,96712.00
2019-06-15T03:57:28.351Z,96715.00
2019-06-15T03:59:59.386Z,96606.00
2019-06-15T04:02:30.497Z,96707.00
2019-06-15T04:05:02.313Z,96702.00
2019-06-15T04:07:33.892Z,96698.00
2019-06-15T04:10:05.085Z,96711.00
2019-06-15T04:12:35.860Z,96699.00
2019-06-15T04:15:07.302Z,96697.00
2019-06-15T04:17:38.415Z,96691.00
2019-06-15T04:20:09.487Z,96695.00
2019-06-15T04:22:40.283Z,96687.00
2019-06-15T04:25:11.447Z,96692.00
2019-06-15T04:27:42.630Z,96693.00
2019-06-15T04:30:14.126Z,96700.00
2019-06-15T04:32:45.148Z,96699.00
2019-06-15T04:35:16.734Z,96701.00
2019-06-15T04:37:47.514Z,96696.00
2019-06-15T04:40:18.423Z,96699.00
2019-06-15T04:42:49.892Z,96699.00
2019-06-15T04:45:21.011Z,96704.00
2019-06-15T04:47:52.444Z,96705.00
2019-06-15T04:50:23.204Z,96700.00
2019-06-15T04:52:54.615Z,96705.00
2019-06-15T04:55:25.442Z,96713.00
2019-06-15T04:57:56.465Z,96712.00
2019-06-15T05:00:27.340Z,96710.00
2019-06-15T05:02:58.442Z,96708.00
2019-06-15T05:05:29.185Z,96701.00
2019-06-15T05:08:00.132Z,96707.00
2019-06-15T05:10:30.923Z,96713.00
2019-06-15T05:13:02.004Z,96721.00
2019-06-15T05:15:32.787Z,96724.00
2019-06-15T05:18:03.580Z,96727.00
2019-06-15T05:20:34.671Z,96724.00
2019-06-15T05:23:05.514Z,96716.00
2019-06-15T05:25:36.837Z,96730.00
2019-06-15T05:28:07.897Z,96739.00
2019-06-15T05:30:38.678Z,96752.00
2019-06-15T05:33:09.777Z,96736.00
2019-06-15T05:35:40.537Z,96740.00
2019-06-15T05:38:11.758Z,96747.00
2019-06-15T05:40:43.474Z,96752.00
2019-06-15T05:43:14.738Z,96749.00
2019-06-15T05:45:45.499Z,96755.00
2019-06-15T05:48:16.342Z,96742.00
2019-06-15T05:50:47.170Z,96744.00
2019-06-15T05:53:18.579Z,96751.00
2019-06-15T05:55:49.724Z,96763.00
2019-06-15T05:58:20.498Z,96762.00
2019-06-15T06:00:51.339Z,96756.00
2019-06-15T06:03:22.521Z,96755.00
2019-06-15T06:05:53.585Z,96766.00
2019-06-15T06:08:25.797Z,96760.00
2019-06-15T06:10:56.570Z,96756.00
2019-06-15T06:13:27.835Z,96764.00
2019-06-15T06:15:58.614Z,96774.00
2019-06-15T06:18:29.374Z,96782.00
2019-06-15T06:21:00.548Z,96774.00
2019-06-15T06:23:31.375Z,96781.00
2019-06-15T06:26:02.346Z,96791.00
2019-06-15T06:28:33.115Z,96804.00
2019-06-15T06:31:04.517Z,96807.00
2019-06-15T06:33:35.422Z,96810.00
2019-06-15T06:36:06.672Z,96809.00
2019-06-15T06:38:37.791Z,96813.00
2019-06-15T06:41:08.608Z,96818.00
2019-06-15T06:43:39.377Z,96824.00
2019-06-15T06:46:10.116Z,96832.00
2019-06-15T06:48:41.260Z,96836.00
2019-06-15T06:51:12.054Z,96842.00
2019-06-15T06:53:43.402Z,96821.00
2019-06-15T06:56:14.544Z,96840.00
2019-06-15T06:58:45.322Z,96855.00
2019-06-15T07:01:16.168Z,96855.00
2019-06-15T07:03:46.973Z,96852.00
2019-06-15T07:06:17.744Z,96857.00
2019-06-15T07:08:48.785Z,96858.00
2019-06-15T07:11:19.576Z,96858.00
2019-06-15T07:13:50.636Z,96862.00
2019-06-15T07:16:21.440Z,96870.00
2019-06-15T07:18:52.206Z,96860.00
2019-06-15T07:21:23.034Z,96864.00
2019-06-15T07:23:54.085Z,96871.00
2019-06-15T07:26:24.914Z,96865.00
2019-06-15T07:28:55.699Z,96864.00
2019-06-15T07:31:26.836Z,96865.00
2019-06-15T07:33:57.608Z,96861.00
2019-06-15T07:36:28.989Z,96863.00
2019-06-15T07:38:59.786Z,96848.00
2019-06-15T07:41:30.524Z,96859.00
2019-06-15T07:44:01.423Z,96871.00
2019-06-15T07:46:32.433Z,96869.00
2019-06-15T07:49:05.066Z,96877.00
2019-06-15T07:51:35.925Z,96879.00
2019-06-15T07:54:06.794Z,96877.00
2019-06-15T07:56:37.539Z,96889.00
2019-06-15T07:59:08.306Z,96882.00
2019-06-15T08:01:39.117Z,96890.00
2019-06-15T08:04:09.901Z,96893.00
2019-06-15T08:06:40.933Z,96899.00
2019-06-15T08:09:12.217Z,96898.00
2019-06-15T08:11:45.821Z,96903.00
2019-06-15T08:14:15.946Z,96898.00
2019-06-15T08:16:47.064Z,96902.00
2019-06-15T08:19:18.194Z,96905.00
2019-06-15T08:21:48.936Z,96909.00
2019-06-15T08:24:19.734Z,96920.00
2019-06-15T08:26:51.438Z,96905.00
2019-06-15T08:29:22.452Z,96912.00
2019-06-15T08:31:53.257Z,96909.00
2019-06-15T08:34:24.033Z,96910.00
2019-06-15T08:36:55.098Z,96910.00
2019-06-15T08:39:26.295Z,96921.00
2019-06-15T08:41:57.158Z,96911.00
2019-06-15T08:44:27.922Z,96910.00
2019-06-15T08:46:59.559Z,96905.00
2019-06-15T08:49:30.876Z,96922.00
2019-06-15T08:52:04.315Z,96919.00
2019-06-15T08:54:34.985Z,96909.00
2019-06-15T08:57:05.835Z,96925.00
2019-06-15T08:59:36.602Z,96928.00
2019-06-15T09:02:07.701Z,96929.00
2019-06-15T09:04:40.039Z,96926.00
2019-06-15T09:07:11.153Z,96926.00
2019-06-15T09:09:41.925Z,96929.00
2019-06-15T09:12:12.907Z,96940.00
2019-06-15T09:14:43.725Z,96940.00
2019-06-15T09:17:14.836Z,96944.00
2019-06-15T09:19:45.947Z,96950.00
2019-06-15T09:22:16.797Z,96957.00
2019-06-15T09:24:48.537Z,96957.00
2019-06-15T09:27:19.302Z,96969.00
2019-06-15T09:29:50.420Z,96965.00
2019-06-15T09:32:21.451Z,96962.00
2019-06-15T09:34:53.546Z,96982.00
2019-06-15T09:37:24.326Z,96980.00
2019-06-15T09:39:55.360Z,96997.00
2019-06-15T09:42:26.429Z,96998.00
2019-06-15T09:44:57.214Z,96991.00
2019-06-15T09:47:28.320Z,97001.00
2019-06-15T09:49:59.473Z,96851.00
2019-06-15T09:52:30.561Z,96985.00
2019-06-15T09:55:01.636Z,96990.00
2019-06-15T09:57:32.411Z,96996.00
2019-06-15T10:00:03.429Z,96990.00
2019-06-15T10:02:34.391Z,96992.00
2019-06-15T10:05:06.160Z,96997.00
2019-06-15T10:07:37.045Z,97000.00
2019-06-15T10:10:09.501Z,97014.00
2019-06-15T10:12:40.570Z,97014.00
2019-06-15T10:15:12.154Z,97027.00
2019-06-15T10:17:42.914Z,97024.00
2019-06-15T10:20:15.907Z,97020.00
2019-06-15T10:22:46.980Z,97023.00
2019-06-15T10:25:18.426Z,97035.00
2019-06-15T10:27:49.570Z,97022.00
2019-06-15T10:30:20.954Z,97035.00
2019-06-15T10:32:52.165Z,97047.00
2019-06-15T10:35:22.939Z,97042.00
2019-06-15T10:37:53.787Z,97057.00
2019-06-15T10:40:24.786Z,97047.00
2019-06-15T10:42:56.200Z,97063.00
2019-06-15T10:45:27.401Z,97066.00
2019-06-15T10:47:58.422Z,97073.00
2019-06-15T10:50:29.184Z,97071.00
2019-06-15T10:52:59.974Z,97070.00
2019-06-15T10:55:30.839Z,97063.00
2019-06-15T10:58:01.585Z,97064.00
2019-06-15T11:00:32.413Z,97059.00
2019-06-15T11:03:03.507Z,97069.00
2019-06-15T11:05:34.963Z,97067.00
2019-06-15T11:08:05.766Z,97079.00
2019-06-15T11:10:50.726Z,97082.00
2019-06-15T11:13:21.467Z,97079.00
2019-06-15T11:15:52.617Z,97093.00
2019-06-15T11:18:24.044Z,97094.00
2019-06-15T11:20:54.860Z,97104.00
2019-06-15T11:23:25.986Z,97102.00
2019-06-15T11:25:57.121Z,97101.00
2019-06-15T11:28:28.429Z,97094.00
2019-06-15T11:30:59.442Z,97096.00
2019-06-15T11:33:30.559Z,97111.00
2019-06-15T11:36:01.543Z,97098.00
2019-06-15T11:38:32.380Z,97119.00
2019-06-15T11:41:03.801Z,97115.00
2019-06-15T11:43:35.278Z,97108.00
2019-06-15T11:46:07.360Z,97121.00
2019-06-15T11:48:38.118Z,97110.00
2019-06-15T11:51:08.980Z,97125.00
2019-06-15T11:53:40.070Z,97126.00
2019-06-15T11:56:11.161Z,97121.00
2019-06-15T11:58:42.156Z,97122.00
2019-06-15T12:01:13.246Z,97103.00
2019-06-15T12:03:43.995Z,97119.00
2019-06-15T12:06:15.415Z,97128.00
2019-06-15T12:08:46.216Z,97114.00
2019-06-15T12:11:17.565Z,97142.00
2019-06-15T12:13:48.308Z,97136.00
2019-06-15T12:16:20.497Z,97127.00
2019-06-15T12:18:51.500Z,97130.00
2019-06-15T12:21:22.292Z,97143.00
2019-06-15T12:23:53.107Z,97141.00
2019-06-15T12:26:24.155Z,97140.00
2019-06-15T12:28:55.051Z,97143.00
2019-06-15T12:31:25.925Z,97148.00
2019-06-15T12:33:56.969Z,97136.00
2019-06-15T12:36:27.751Z,97131.00
2019-06-15T12:38:58.535Z,97140.00
2019-06-15T12:41:30.000Z,97140.00
2019-06-15T12:44:01.177Z,97147.00
2019-06-15T12:46:32.298Z,97152.00
2019-06-15T12:49:03.049Z,97138.00
2019-06-15T12:51:33.945Z,97149.00
2019-06-15T12:54:04.786Z,97157.00
2019-06-15T12:56:35.567Z,97143.00
2019-06-15T12:59:06.394Z,97150.00
2019-06-15T13:01:37.248Z,97156.00
2019-06-15T13:04:07.997Z,97157.00
2019-06-15T13:06:38.775Z,97159.00
2019-06-15T13:09:09.768Z,97169.00
2019-06-15T13:11:41.198Z,97177.00
2019-06-15T13:14:11.957Z,97159.00
2019-06-15T13:16:43.337Z,97167.00
2019-06-15T13:19:14.885Z,97165.00
2019-06-15T13:21:45.937Z,97165.00
2019-06-15T13:24:17.425Z,97157.00
2019-06-15T13:26:48.223Z,97174.00
2019-06-15T13:29:19.002Z,97177.00
2019-06-15T13:31:50.044Z,97164.00
2019-06-15T13:34:22.295Z,97157.00
2019-06-15T13:36:53.424Z,97177.00
2019-06-15T13:39:24.449Z,97178.00
2019-06-15T13:41:55.233Z,97181.00
2019-06-15T13:44:26.360Z,97186.00
2019-06-15T13:46:57.141Z,97191.00
2019-06-15T13:49:28.156Z,97194.00
2019-06-15T13:51:58.911Z,97187.00
2019-06-15T13:54:30.429Z,97190.00
2019-06-15T13:57:01.207Z,97208.00
2019-06-15T13:59:31.954Z,97201.00
2019-06-15T14:02:03.045Z,97200.00
2019-06-15T14:04:33.861Z,97191.00
2019-06-15T14:07:04.714Z,97197.00
2019-06-15T14:09:36.208Z,97183.00
2019-06-15T14:12:07.268Z,97195.00
2019-06-15T14:14:38.335Z,97202.00
2019-06-15T14:17:09.108Z,97208.00
2019-06-15T14:19:39.888Z,97198.00
2019-06-15T14:22:10.664Z,97193.00
2019-06-15T14:24:41.443Z,97202.00
2019-06-15T14:27:12.261Z,97193.00
2019-06-15T14:29:43.021Z,97188.00
2019-06-15T14:32:13.796Z,97192.00
2019-06-15T14:34:45.827Z,97193.00
2019-06-15T14:37:16.955Z,97199.00
2019-06-15T14:39:48.026Z,97200.00
2019-06-15T14:42:18.941Z,97203.00
2019-06-15T14:44:52.541Z,97188.00
2019-06-15T14:47:23.391Z,97191.00
2019-06-15T14:49:54.427Z,97199.00
2019-06-15T14:52:25.206Z,97203.00
2019-06-15T14:54:56.745Z,97205.00
2019-06-15T14:57:27.525Z,97219.00
2019-06-15T15:00:04.732Z,97206.00
2019-06-15T15:02:31.053Z,97201.00
2019-06-15T15:05:02.184Z,97193.00
2019-06-15T15:07:33.342Z,97204.00
2019-06-15T15:10:07.210Z,97197.00
2019-06-15T15:12:41.497Z,97200.00
2019-06-15T15:15:12.043Z,97202.00
2019-06-15T15:17:42.891Z,97207.00
2019-06-15T15:20:13.851Z,97211.00
2019-06-15T15:22:46.526Z,97207.00
2019-06-15T15:25:18.630Z,97201.00
2019-06-15T15:27:49.408Z,97197.00
2019-06-15T15:30:43.318Z,97194.00
2019-06-15T15:33:14.483Z,97198.00
2019-06-15T15:35:46.670Z,97188.00
2019-06-15T15:38:17.919Z,97186.00
2019-06-15T15:40:49.321Z,97183.00
2019-06-15T15:43:20.106Z,97174.00
2019-06-15T15:45:50.860Z,97181.00
2019-06-15T15:48:21.969Z,97185.00
2019-06-15T15:50:53.276Z,97182.00
2019-06-15T15:53:26.307Z,97176.00
2019-06-15T15:55:59.813Z,97178.00
2019-06-15T15:58:29.212Z,97169.00
2019-06-15T16:01:00.039Z,97183.00
2019-06-15T16:03:31.160Z,97185.00
2019-06-15T16:06:02.182Z,97177.00
2019-06-15T16:08:32.950Z,97167.00
2019-06-15T16:11:04.456Z,97164.00
2019-06-15T16:13:35.263Z,97184.00
2019-06-15T16:16:06.185Z,97164.00
2019-06-15T16:18:36.963Z,97169.00
2019-06-15T16:21:08.019Z,97171.00
2019-06-15T16:23:38.874Z,97177.00
2019-06-15T16:26:09.903Z,97170.00
2019-06-15T16:28:41.352Z,97169.00
2019-06-15T16:31:13.930Z,97169.00
2019-06-15T16:33:46.485Z,97173.00
2019-06-15T16:36:17.470Z,97169.00
2019-06-15T16:38:48.394Z,97183.00
2019-06-15T16:41:19.519Z,97186.00
2019-06-15T16:43:50.422Z,97179.00
2019-06-15T16:46:21.228Z,97193.00
2019-06-15T16:48:52.227Z,97183.00
2019-06-15T16:51:24.055Z,97184.00
2019-06-15T16:53:57.030Z,97191.00
2019-06-15T16:56:27.885Z,97196.00
2019-06-15T16:58:59.650Z,97196.00
2019-06-15T17:01:31.249Z,97188.00
2019-06-15T17:04:02.333Z,97182.00
2019-06-15T17:06:33.165Z,97183.00
2019-06-15T17:09:06.101Z,97191.00
2019-06-15T17:11:38.582Z,97186.00
2019-06-15T17:14:09.509Z,97178.00
2019-06-15T17:16:40.271Z,97180.00
2019-06-15T17:19:11.471Z,97186.00
2019-06-15T17:21:42.225Z,97184.00
2019-06-15T17:24:13.353Z,97183.00
2019-06-15T17:26:46.663Z,97183.00
2019-06-15T17:29:16.655Z,97187.00
2019-06-15T17:31:48.096Z,97202.00
2019-06-15T17:34:18.869Z,97192.00
2019-06-15T17:36:49.628Z,97193.00
2019-06-15T17:39:20.406Z,97193.00
2019-06-15T17:41:51.481Z,97197.00
2019-06-15T17:44:22.244Z,97186.00
2019-06-15T17:46:53.024Z,97189.00
2019-06-15T17:49:23.818Z,97183.00
2019-06-15T17:51:54.921Z,97181.00
2019-06-15T17:54:27.295Z,97192.00
2019-06-15T17:56:59.939Z,97200.00
2019-06-15T17:59:30.992Z,97205.00
2019-06-15T18:02:02.888Z,97197.00
2019-06-15T18:04:37.120Z,97206.00
2019-06-15T18:07:06.617Z,97196.00
2019-06-15T18:09:37.741Z,97193.00
2019-06-15T18:12:08.701Z,97201.00
2019-06-15T18:14:40.399Z,97206.00
2019-06-15T18:17:11.183Z,97213.00
2019-06-15T18:19:42.276Z,97218.00
2019-06-15T18:22:13.070Z,97222.00
2019-06-15T18:24:46.494Z,97218.00
2019-06-15T18:27:17.974Z,97217.00
2019-06-15T18:29:49.049Z,97210.00
2019-06-15T18:32:19.809Z,97216.00
2019-06-15T18:34:50.891Z,97214.00
2019-06-15T18:37:21.636Z,97229.00
2019-06-15T18:39:52.416Z,97229.00
2019-06-15T18:42:25.945Z,97236.00
2019-06-15T18:44:56.810Z,97240.00
2019-06-15T18:47:27.951Z,97258.00
2019-06-15T18:49:58.750Z,97243.00
2019-06-15T18:52:29.839Z,97245.00
2019-06-15T18:55:01.257Z,97249.00
2019-06-15T18:57:32.122Z,97244.00
2019-06-15T19:00:03.009Z,97253.00
2019-06-15T19:02:36.166Z,97261.00
2019-06-15T19:05:07.873Z,97260.00
2019-06-15T19:07:38.945Z,97255.00
2019-06-15T19:10:10.246Z,97268.00
2019-06-15T19:12:41.054Z,97259.00
2019-06-15T19:15:12.351Z,97262.00
2019-06-15T19:17:46.244Z,97262.00
2019-06-15T19:20:16.907Z,97266.00
2019-06-15T19:22:48.000Z,97277.00
2019-06-15T19:25:19.311Z,97283.00
2019-06-15T19:27:50.644Z,97285.00
2019-06-15T19:30:22.133Z,97294.00
2019-06-15T19:32:52.975Z,97292.00
2019-06-15T19:35:26.332Z,97304.00
2019-06-15T19:37:57.495Z,97298.00
2019-06-15T19:40:28.618Z,97298.00
2019-06-15T19:42:59.758Z,97311.00
2019-06-15T19:45:30.911Z,97319.00
2019-06-15T19:48:02.044Z,97325.00
2019-06-15T19:50:35.986Z,97325.00
2019-06-15T19:53:06.993Z,97320.00
2019-06-15T19:55:39.553Z,97318.00
2019-06-15T19:58:10.838Z,97327.00
2019-06-15T20:00:41.627Z,97318.00
2019-06-15T20:03:12.706Z,97321.00
2019-06-15T20:05:46.091Z,97321.00
2019-06-15T20:08:17.717Z,97320.00
2019-06-15T20:10:49.091Z,97319.00
2019-06-15T20:13:19.892Z,97312.00
2019-06-15T20:15:50.761Z,97318.00
2019-06-15T20:18:21.549Z,97323.00
2019-06-15T20:20:53.099Z,97318.00
2019-06-15T20:23:26.430Z,97324.00
2019-06-15T20:25:57.003Z,97331.00
2019-06-15T20:28:28.049Z,97325.00
2019-06-15T20:30:59.964Z,97333.00
2019-06-15T20:33:30.802Z,97323.00
2019-06-15T20:36:01.899Z,97323.00
2019-06-15T20:38:32.935Z,97325.00
2019-06-15T20:41:03.719Z,97327.00
2019-06-15T20:43:36.614Z,97338.00
2019-06-15T20:46:07.743Z,97332.00
2019-06-15T20:48:38.769Z,97342.00
2019-06-15T20:51:10.465Z,97342.00
2019-06-15T20:53:41.256Z,97345.00
2019-06-15T20:56:12.326Z,97346.00
2019-06-15T20:58:45.298Z,97351.00
2019-06-15T21:01:16.537Z,97353.00
2019-06-15T21:03:47.623Z,97357.00
2019-06-15T21:06:18.662Z,97367.00
2019-06-15T21:08:49.577Z,97378.00
2019-06-15T21:11:20.455Z,97377.00
2019-06-15T21:13:51.236Z,97377.00
2019-06-15T21:16:22.402Z,97384.00
2019-06-15T21:18:53.433Z,97376.00
2019-06-15T21:21:24.210Z,97381.00
2019-06-15T21:23:56.951Z,97380.00
2019-06-15T21:26:27.871Z,97373.00
2019-06-15T21:29:00.032Z,97386.00
2019-06-15T21:31:30.834Z,97401.00
2019-06-15T21:34:01.991Z,97404.00
2019-06-15T21:36:33.419Z,97410.00
2019-06-15T21:39:06.831Z,97410.00
2019-06-15T21:41:39.114Z,97421.00
2019-06-15T21:44:10.208Z,97410.00
2019-06-15T21:46:41.507Z,97407.00
2019-06-15T21:49:15.803Z,97412.00
2019-06-15T21:51:47.346Z,97415.00
2019-06-15T21:54:18.593Z,97409.00
2019-06-15T21:56:49.340Z,97405.00
2019-06-15T21:59:20.414Z,97420.00
2019-06-15T22:01:51.734Z,97416.00
2019-06-15T22:04:22.571Z,97426.00
2019-06-15T22:06:53.478Z,97438.00
2019-06-15T22:09:26.507Z,97452.00
2019-06-15T22:11:57.121Z,97452.00
2019-06-15T22:14:28.317Z,97454.00
2019-06-15T22:16:59.345Z,97465.00
2019-06-15T22:19:30.217Z,97473.00
2019-06-15T22:22:01.396Z,97466.00
2019-06-15T22:24:36.226Z,97462.00
2019-06-15T22:27:06.935Z,97448.00
2019-06-15T22:29:37.764Z,97450.00
2019-06-15T22:32:08.905Z,97449.00
2019-06-15T22:34:39.972Z,97453.00
2019-06-15T22:37:10.934Z,97451.00
2019-06-15T22:39:41.728Z,97453.00
2019-06-15T22:42:12.501Z,97455.00
2019-06-15T22:44:46.258Z,97458.00
2019-06-15T22:47:16.937Z,97460.00
2019-06-15T22:49:47.933Z,97458.00
2019-06-15T22:52:18.699Z,97449.00
2019-06-15T22:54:49.898Z,97446.00
2019-06-15T22:57:20.854Z,97444.00
2019-06-15T22:59:51.978Z,97447.00
2019-06-15T23:02:22.782Z,97442.00
2019-06-15T23:04:56.449Z,97453.00
2019-06-15T23:07:27.538Z,97448.00
2019-06-15T23:09:58.653Z,97452.00
2019-06-15T23:12:29.713Z,97460.00
2019-06-15T23:15:00.849Z,97457.00
2019-06-15T23:17:32.979Z,97466.00
2019-06-15T23:20:06.383Z,97456.00
2019-06-15T23:22:37.010Z,97454.00
2019-06-15T23:25:08.048Z,97461.00
2019-06-15T23:27:38.805Z,97459.00
2019-06-15T23:30:10.735Z,97464.00
2019-06-15T23:32:41.871Z,97465.00
2019-06-15T23:35:12.882Z,97458.00
2019-06-15T23:37:46.340Z,97464.00
2019-06-15T23:40:20.947Z,97465.00
2019-06-15T23:42:52.115Z,97468.00
2019-06-15T23:45:26.585Z,97462.00
2019-06-15T23:47:57.520Z,97461.00
2019-06-15T23:50:28.837Z,97475.00
2019-06-15T23:52:59.639Z,97478.00
2019-06-15T23:55:30.764Z,97483.00
2019-06-15T23:58:01.566Z,97488.00
